sensor_id;sensor_type;location;lat;lon;timestamp;P1;durP1;ratioP1;P2;durP2;ratioP2
40286;SDS011;25998;46.604;13.610;2023-08-07T00:00:44;7.20;;;1.55;;
40286;SDS011;25998;46.604;13.610;2023-08-07T00:03:55;1.63;;;0.57;;
40286;SDS011;25998;46.604;13.610;2023-08-07T00:07:06;0.63;;;0.52;;
40286;SDS011;25998;46.604;13.610;2023-08-07T00:10:17;4.10;;;0.60;;
40286;SDS011;25998;46.604;13.610;2023-08-07T00:13:28;3.15;;;0.60;;
40286;SDS011;25998;46.604;13.610;2023-08-07T00:16:40;2.00;;;0.50;;
40286;SDS011;25998;46.604;13.610;2023-08-07T00:19:51;1.00;;;0.50;;
40286;SDS011;25998;46.604;13.610;2023-08-07T00:23:02;4.05;;;0.70;;
40286;SDS011;25998;46.604;13.610;2023-08-07T00:26:13;0.85;;;0.45;;
40286;SDS011;25998;46.604;13.610;2023-08-07T00:29:24;1.98;;;0.55;;
40286;SDS011;25998;46.604;13.610;2023-08-07T00:32:35;2.75;;;0.85;;
40286;SDS011;25998;46.604;13.610;2023-08-07T00:35:45;2.40;;;0.60;;
40286;SDS011;25998;46.604;13.610;2023-08-07T00:38:56;0.77;;;0.55;;
40286;SDS011;25998;46.604;13.610;2023-08-07T00:42:07;1.85;;;0.50;;
40286;SDS011;25998;46.604;13.610;2023-08-07T00:45:18;2.90;;;0.60;;
40286;SDS011;25998;46.604;13.610;2023-08-07T00:48:29;1.25;;;0.38;;
40286;SDS011;25998;46.604;13.610;2023-08-07T00:51:41;0.95;;;0.50;;
40286;SDS011;25998;46.604;13.610;2023-08-07T00:54:52;1.70;;;0.70;;
40286;SDS011;25998;46.604;13.610;2023-08-07T00:58:03;3.67;;;0.65;;
40286;SDS011;25998;46.604;13.610;2023-08-07T01:01:13;1.55;;;0.70;;
40286;SDS011;25998;46.604;13.610;2023-08-07T01:04:25;2.65;;;0.70;;
40286;SDS011;25998;46.604;13.610;2023-08-07T01:07:36;1.63;;;0.55;;
40286;SDS011;25998;46.604;13.610;2023-08-07T01:14:03;3.08;;;0.60;;
40286;SDS011;25998;46.604;13.610;2023-08-07T01:17:25;2.60;;;0.70;;
40286;SDS011;25998;46.604;13.610;2023-08-07T01:20:38;3.72;;;0.82;;
40286;SDS011;25998;46.604;13.610;2023-08-07T01:23:49;1.98;;;0.45;;
40286;SDS011;25998;46.604;13.610;2023-08-07T01:27:03;1.13;;;0.63;;
40286;SDS011;25998;46.604;13.610;2023-08-07T01:30:31;1.48;;;0.70;;
40286;SDS011;25998;46.604;13.610;2023-08-07T01:37:06;3.55;;;0.77;;
40286;SDS011;25998;46.604;13.610;2023-08-07T01:40:19;3.05;;;0.63;;
40286;SDS011;25998;46.604;13.610;2023-08-07T01:43:31;1.42;;;0.60;;
40286;SDS011;25998;46.604;13.610;2023-08-07T01:46:43;0.90;;;0.65;;
40286;SDS011;25998;46.604;13.610;2023-08-07T01:49:53;0.90;;;0.60;;
40286;SDS011;25998;46.604;13.610;2023-08-07T01:53:04;1.88;;;0.85;;
40286;SDS011;25998;46.604;13.610;2023-08-07T01:56:16;2.22;;;0.70;;
40286;SDS011;25998;46.604;13.610;2023-08-07T01:59:27;0.77;;;0.50;;
40286;SDS011;25998;46.604;13.610;2023-08-07T02:02:38;1.77;;;0.90;;
40286;SDS011;25998;46.604;13.610;2023-08-07T02:05:49;3.13;;;0.88;;
40286;SDS011;25998;46.604;13.610;2023-08-07T02:08:59;2.35;;;0.70;;
40286;SDS011;25998;46.604;13.610;2023-08-07T02:12:10;3.95;;;0.80;;
40286;SDS011;25998;46.604;13.610;2023-08-07T02:15:21;0.60;;;0.57;;
40286;SDS011;25998;46.604;13.610;2023-08-07T02:18:32;1.10;;;0.70;;
40286;SDS011;25998;46.604;13.610;2023-08-07T02:21:43;3.08;;;0.90;;
40286;SDS011;25998;46.604;13.610;2023-08-07T02:24:53;3.17;;;0.70;;
40286;SDS011;25998;46.604;13.610;2023-08-07T02:28:04;2.20;;;0.60;;
40286;SDS011;25998;46.604;13.610;2023-08-07T02:31:15;4.28;;;0.70;;
40286;SDS011;25998;46.604;13.610;2023-08-07T02:34:26;1.00;;;0.47;;
40286;SDS011;25998;46.604;13.610;2023-08-07T02:37:36;2.13;;;1.17;;
40286;SDS011;25998;46.604;13.610;2023-08-07T02:40:47;2.13;;;0.80;;
40286;SDS011;25998;46.604;13.610;2023-08-07T02:43:58;1.08;;;0.65;;
40286;SDS011;25998;46.604;13.610;2023-08-07T02:47:09;1.48;;;0.80;;
40286;SDS011;25998;46.604;13.610;2023-08-07T02:50:20;4.95;;;1.05;;
40286;SDS011;25998;46.604;13.610;2023-08-07T02:53:30;1.83;;;0.65;;
40286;SDS011;25998;46.604;13.610;2023-08-07T02:56:41;2.28;;;0.68;;
40286;SDS011;25998;46.604;13.610;2023-08-07T02:59:52;1.83;;;0.80;;
40286;SDS011;25998;46.604;13.610;2023-08-07T03:03:03;1.77;;;0.60;;
40286;SDS011;25998;46.604;13.610;2023-08-07T03:06:14;0.45;;;0.40;;
40286;SDS011;25998;46.604;13.610;2023-08-07T03:09:24;1.13;;;0.52;;
40286;SDS011;25998;46.604;13.610;2023-08-07T03:12:35;1.50;;;0.45;;
40286;SDS011;25998;46.604;13.610;2023-08-07T03:15:47;3.75;;;0.93;;
40286;SDS011;25998;46.604;13.610;2023-08-07T03:19:00;1.20;;;0.70;;
40286;SDS011;25998;46.604;13.610;2023-08-07T03:22:11;1.45;;;0.60;;
40286;SDS011;25998;46.604;13.610;2023-08-07T03:25:21;1.08;;;0.65;;
40286;SDS011;25998;46.604;13.610;2023-08-07T03:28:32;1.00;;;0.70;;
40286;SDS011;25998;46.604;13.610;2023-08-07T03:31:44;2.45;;;0.63;;
40286;SDS011;25998;46.604;13.610;2023-08-07T03:34:55;3.38;;;0.80;;
40286;SDS011;25998;46.604;13.610;2023-08-07T03:38:06;4.28;;;0.70;;
40286;SDS011;25998;46.604;13.610;2023-08-07T03:41:17;2.40;;;0.80;;
40286;SDS011;25998;46.604;13.610;2023-08-07T03:44:27;2.60;;;0.70;;
40286;SDS011;25998;46.604;13.610;2023-08-07T03:47:38;1.20;;;0.50;;
40286;SDS011;25998;46.604;13.610;2023-08-07T03:50:49;2.22;;;0.75;;
40286;SDS011;25998;46.604;13.610;2023-08-07T03:54:00;2.22;;;0.52;;
40286;SDS011;25998;46.604;13.610;2023-08-07T03:57:11;2.10;;;0.63;;
40286;SDS011;25998;46.604;13.610;2023-08-07T04:00:22;0.63;;;0.40;;
40286;SDS011;25998;46.604;13.610;2023-08-07T04:03:32;1.85;;;0.63;;
40286;SDS011;25998;46.604;13.610;2023-08-07T04:06:43;1.00;;;0.50;;
40286;SDS011;25998;46.604;13.610;2023-08-07T04:09:54;1.48;;;0.63;;
40286;SDS011;25998;46.604;13.610;2023-08-07T04:13:05;0.68;;;0.52;;
40286;SDS011;25998;46.604;13.610;2023-08-07T04:16:16;1.38;;;0.55;;
40286;SDS011;25998;46.604;13.610;2023-08-07T04:19:27;4.40;;;1.00;;
40286;SDS011;25998;46.604;13.610;2023-08-07T04:22:38;2.10;;;0.90;;
40286;SDS011;25998;46.604;13.610;2023-08-07T04:25:48;1.45;;;0.80;;
40286;SDS011;25998;46.604;13.610;2023-08-07T04:29:00;5.35;;;1.23;;
40286;SDS011;25998;46.604;13.610;2023-08-07T04:32:11;3.08;;;0.85;;
40286;SDS011;25998;46.604;13.610;2023-08-07T04:35:22;5.57;;;1.23;;
40286;SDS011;25998;46.604;13.610;2023-08-07T04:38:33;3.53;;;1.23;;
40286;SDS011;25998;46.604;13.610;2023-08-07T04:41:43;1.83;;;1.15;;
40286;SDS011;25998;46.604;13.610;2023-08-07T04:44:54;6.70;;;1.30;;
40286;SDS011;25998;46.604;13.610;2023-08-07T04:48:06;4.38;;;1.20;;
40286;SDS011;25998;46.604;13.610;2023-08-07T04:51:18;2.00;;;1.08;;
40286;SDS011;25998;46.604;13.610;2023-08-07T04:54:29;4.35;;;1.63;;
40286;SDS011;25998;46.604;13.610;2023-08-07T04:57:39;3.75;;;1.20;;
40286;SDS011;25998;46.604;13.610;2023-08-07T05:00:54;10.30;;;2.90;;
40286;SDS011;25998;46.604;13.610;2023-08-07T05:04:06;5.60;;;1.40;;
40286;SDS011;25998;46.604;13.610;2023-08-07T05:07:17;3.83;;;0.80;;
40286;SDS011;25998;46.604;13.610;2023-08-07T05:10:28;4.03;;;1.23;;
40286;SDS011;25998;46.604;13.610;2023-08-07T05:13:39;3.67;;;1.02;;
40286;SDS011;25998;46.604;13.610;2023-08-07T05:16:50;2.03;;;0.70;;
40286;SDS011;25998;46.604;13.610;2023-08-07T05:20:00;6.97;;;1.42;;
40286;SDS011;25998;46.604;13.610;2023-08-07T05:23:11;3.75;;;0.95;;
40286;SDS011;25998;46.604;13.610;2023-08-07T05:26:22;4.07;;;1.33;;
40286;SDS011;25998;46.604;13.610;2023-08-07T05:29:33;6.05;;;1.45;;
40286;SDS011;25998;46.604;13.610;2023-08-07T05:32:45;8.15;;;2.28;;
40286;SDS011;25998;46.604;13.610;2023-08-07T05:35:55;4.88;;;1.50;;
40286;SDS011;25998;46.604;13.610;2023-08-07T05:39:06;3.83;;;1.50;;
40286;SDS011;25998;46.604;13.610;2023-08-07T05:42:18;11.63;;;2.30;;
40286;SDS011;25998;46.604;13.610;2023-08-07T05:45:29;11.20;;;2.38;;
40286;SDS011;25998;46.604;13.610;2023-08-07T05:48:40;4.97;;;1.90;;
40286;SDS011;25998;46.604;13.610;2023-08-07T05:51:51;7.63;;;1.92;;
40286;SDS011;25998;46.604;13.610;2023-08-07T05:55:03;7.05;;;2.15;;
40286;SDS011;25998;46.604;13.610;2023-08-07T05:58:14;9.68;;;2.17;;
40286;SDS011;25998;46.604;13.610;2023-08-07T06:01:25;8.77;;;1.70;;
40286;SDS011;25998;46.604;13.610;2023-08-07T06:04:42;4.85;;;1.60;;
40286;SDS011;25998;46.604;13.610;2023-08-07T06:07:52;4.90;;;1.77;;
40286;SDS011;25998;46.604;13.610;2023-08-07T06:11:03;7.22;;;1.48;;
40286;SDS011;25998;46.604;13.610;2023-08-07T06:14:15;8.23;;;1.58;;
40286;SDS011;25998;46.604;13.610;2023-08-07T06:17:27;6.15;;;1.27;;
40286;SDS011;25998;46.604;13.610;2023-08-07T06:20:37;3.15;;;1.25;;
40286;SDS011;25998;46.604;13.610;2023-08-07T06:23:48;7.93;;;1.88;;
40286;SDS011;25998;46.604;13.610;2023-08-07T06:26:59;4.32;;;1.27;;
40286;SDS011;25998;46.604;13.610;2023-08-07T06:30:12;7.22;;;1.50;;
40286;SDS011;25998;46.604;13.610;2023-08-07T06:33:24;7.63;;;1.77;;
40286;SDS011;25998;46.604;13.610;2023-08-07T06:36:34;6.97;;;1.30;;
40286;SDS011;25998;46.604;13.610;2023-08-07T06:39:45;5.35;;;1.00;;
40286;SDS011;25998;46.604;13.610;2023-08-07T06:42:56;1.40;;;0.90;;
40286;SDS011;25998;46.604;13.610;2023-08-07T06:46:07;11.40;;;1.63;;
40286;SDS011;25998;46.604;13.610;2023-08-07T06:49:18;2.20;;;0.98;;
40286;SDS011;25998;46.604;13.610;2023-08-07T06:52:29;4.05;;;0.82;;
40286;SDS011;25998;46.604;13.610;2023-08-07T06:55:43;1.13;;;0.80;;
40286;SDS011;25998;46.604;13.610;2023-08-07T09:01:17;0.77;;;0.60;;
40286;SDS011;25998;46.604;13.610;2023-08-07T09:04:28;3.10;;;0.95;;
40286;SDS011;25998;46.604;13.610;2023-08-07T09:07:39;1.85;;;0.95;;
40286;SDS011;25998;46.604;13.610;2023-08-07T09:10:50;1.58;;;0.98;;
40286;SDS011;25998;46.604;13.610;2023-08-07T09:14:02;2.03;;;1.08;;
40286;SDS011;25998;46.604;13.610;2023-08-07T09:17:13;1.75;;;0.95;;
40286;SDS011;25998;46.604;13.610;2023-08-07T09:20:25;1.65;;;0.85;;
40286;SDS011;25998;46.604;13.610;2023-08-07T09:23:37;2.60;;;1.00;;
40286;SDS011;25998;46.604;13.610;2023-08-07T09:26:47;2.92;;;0.95;;
40286;SDS011;25998;46.604;13.610;2023-08-07T09:30:00;0.80;;;0.75;;
40286;SDS011;25998;46.604;13.610;2023-08-07T09:33:12;1.60;;;1.05;;
40286;SDS011;25998;46.604;13.610;2023-08-07T09:36:23;1.20;;;0.73;;
40286;SDS011;25998;46.604;13.610;2023-08-07T09:39:34;0.82;;;0.70;;
40286;SDS011;25998;46.604;13.610;2023-08-07T09:42:49;2.65;;;0.80;;
40286;SDS011;25998;46.604;13.610;2023-08-07T09:46:05;1.08;;;0.85;;
40286;SDS011;25998;46.604;13.610;2023-08-07T09:49:17;0.70;;;0.70;;
40286;SDS011;25998;46.604;13.610;2023-08-07T09:52:28;2.05;;;0.75;;
40286;SDS011;25998;46.604;13.610;2023-08-07T09:55:39;1.00;;;0.63;;
40286;SDS011;25998;46.604;13.610;2023-08-07T09:58:51;0.60;;;0.60;;
40286;SDS011;25998;46.604;13.610;2023-08-07T10:02:03;1.23;;;0.65;;
40286;SDS011;25998;46.604;13.610;2023-08-07T10:05:15;0.70;;;0.70;;
40286;SDS011;25998;46.604;13.610;2023-08-07T10:08:26;0.85;;;0.68;;
40286;SDS011;25998;46.604;13.610;2023-08-07T10:11:38;0.85;;;0.60;;
40286;SDS011;25998;46.604;13.610;2023-08-07T10:14:53;1.27;;;0.70;;
40286;SDS011;25998;46.604;13.610;2023-08-07T10:18:04;1.55;;;0.80;;
40286;SDS011;25998;46.604;13.610;2023-08-07T10:21:15;1.45;;;0.93;;
40286;SDS011;25998;46.604;13.610;2023-08-07T10:24:26;1.90;;;0.90;;
40286;SDS011;25998;46.604;13.610;2023-08-07T10:27:38;2.25;;;1.27;;
40286;SDS011;25998;46.604;13.610;2023-08-07T10:30:51;2.58;;;0.88;;
40286;SDS011;25998;46.604;13.610;2023-08-07T10:34:03;2.55;;;1.10;;
40286;SDS011;25998;46.604;13.610;2023-08-07T10:41:06;1.98;;;1.15;;
40286;SDS011;25998;46.604;13.610;2023-08-07T10:44:18;1.95;;;1.13;;
40286;SDS011;25998;46.604;13.610;2023-08-07T10:47:36;1.70;;;1.03;;
40286;SDS011;25998;46.604;13.610;2023-08-07T10:50:56;3.15;;;1.23;;
40286;SDS011;25998;46.604;13.610;2023-08-07T10:54:13;1.58;;;0.93;;
40286;SDS011;25998;46.604;13.610;2023-08-07T10:57:24;6.07;;;1.75;;
40286;SDS011;25998;46.604;13.610;2023-08-07T11:00:41;2.25;;;1.17;;
40286;SDS011;25998;46.604;13.610;2023-08-07T11:03:53;1.58;;;1.10;;
40286;SDS011;25998;46.604;13.610;2023-08-07T11:07:05;8.20;;;1.40;;
40286;SDS011;25998;46.604;13.610;2023-08-07T11:10:17;1.80;;;1.15;;
40286;SDS011;25998;46.604;13.610;2023-08-07T11:13:29;2.53;;;1.30;;
40286;SDS011;25998;46.604;13.610;2023-08-07T11:16:40;3.75;;;1.42;;
40286;SDS011;25998;46.604;13.610;2023-08-07T11:19:51;1.90;;;1.25;;
40286;SDS011;25998;46.604;13.610;2023-08-07T11:23:04;2.40;;;1.20;;
40286;SDS011;25998;46.604;13.610;2023-08-07T11:26:15;3.03;;;1.20;;
40286;SDS011;25998;46.604;13.610;2023-08-07T11:29:27;5.45;;;1.60;;
40286;SDS011;25998;46.604;13.610;2023-08-07T11:32:38;4.10;;;1.35;;
40286;SDS011;25998;46.604;13.610;2023-08-07T11:35:49;2.15;;;1.23;;
40286;SDS011;25998;46.604;13.610;2023-08-07T11:39:00;3.25;;;1.20;;
40286;SDS011;25998;46.604;13.610;2023-08-07T11:42:13;2.95;;;1.25;;
40286;SDS011;25998;46.604;13.610;2023-08-07T11:45:24;1.85;;;1.10;;
40286;SDS011;25998;46.604;13.610;2023-08-07T11:48:38;2.30;;;1.20;;
40286;SDS011;25998;46.604;13.610;2023-08-07T11:51:50;1.95;;;1.20;;
40286;SDS011;25998;46.604;13.610;2023-08-07T11:55:02;2.35;;;1.30;;
40286;SDS011;25998;46.604;13.610;2023-08-07T11:58:13;2.30;;;1.40;;
40286;SDS011;25998;46.604;13.610;2023-08-07T12:01:25;1.88;;;1.30;;
40286;SDS011;25998;46.604;13.610;2023-08-07T12:04:36;1.50;;;1.10;;
40286;SDS011;25998;46.604;13.610;2023-08-07T12:07:48;2.22;;;1.10;;
40286;SDS011;25998;46.604;13.610;2023-08-07T12:11:09;1.52;;;1.10;;
40286;SDS011;25998;46.604;13.610;2023-08-07T12:14:21;2.10;;;1.35;;
40286;SDS011;25998;46.604;13.610;2023-08-07T12:17:32;2.65;;;1.45;;
40286;SDS011;25998;46.604;13.610;2023-08-07T12:20:43;1.98;;;1.27;;
40286;SDS011;25998;46.604;13.610;2023-08-07T12:23:55;4.60;;;1.67;;
40286;SDS011;25998;46.604;13.610;2023-08-07T12:27:06;3.65;;;1.30;;
40286;SDS011;25998;46.604;13.610;2023-08-07T12:30:17;2.78;;;1.42;;
40286;SDS011;25998;46.604;13.610;2023-08-07T12:33:28;2.05;;;1.27;;
40286;SDS011;25998;46.604;13.610;2023-08-07T12:36:39;2.20;;;1.50;;
40286;SDS011;25998;46.604;13.610;2023-08-07T12:39:50;2.65;;;1.33;;
40286;SDS011;25998;46.604;13.610;2023-08-07T12:43:01;1.88;;;1.30;;
40286;SDS011;25998;46.604;13.610;2023-08-07T12:46:16;2.58;;;1.30;;
40286;SDS011;25998;46.604;13.610;2023-08-07T12:49:26;3.10;;;1.35;;
40286;SDS011;25998;46.604;13.610;2023-08-07T12:52:37;2.17;;;1.25;;
40286;SDS011;25998;46.604;13.610;2023-08-07T12:55:48;2.38;;;1.40;;
40286;SDS011;25998;46.604;13.610;2023-08-07T12:58:59;3.80;;;1.40;;
40286;SDS011;25998;46.604;13.610;2023-08-07T13:02:10;3.30;;;1.50;;
40286;SDS011;25998;46.604;13.610;2023-08-07T13:05:21;3.72;;;1.58;;
40286;SDS011;25998;46.604;13.610;2023-08-07T13:08:32;4.68;;;1.67;;
40286;SDS011;25998;46.604;13.610;2023-08-07T13:11:44;2.92;;;1.25;;
40286;SDS011;25998;46.604;13.610;2023-08-07T13:14:55;1.80;;;1.20;;
40286;SDS011;25998;46.604;13.610;2023-08-07T13:18:06;2.20;;;1.38;;
40286;SDS011;25998;46.604;13.610;2023-08-07T13:21:17;2.65;;;1.55;;
40286;SDS011;25998;46.604;13.610;2023-08-07T13:24:28;2.85;;;1.42;;
40286;SDS011;25998;46.604;13.610;2023-08-07T13:27:38;5.15;;;1.38;;
40286;SDS011;25998;46.604;13.610;2023-08-07T13:30:50;3.92;;;1.45;;
40286;SDS011;25998;46.604;13.610;2023-08-07T13:34:01;2.90;;;1.65;;
40286;SDS011;25998;46.604;13.610;2023-08-07T13:37:17;2.30;;;1.50;;
40286;SDS011;25998;46.604;13.610;2023-08-07T13:40:28;3.30;;;1.40;;
40286;SDS011;25998;46.604;13.610;2023-08-07T13:43:39;2.70;;;1.73;;
40286;SDS011;25998;46.604;13.610;2023-08-07T13:46:50;4.20;;;1.40;;
40286;SDS011;25998;46.604;13.610;2023-08-07T13:50:01;3.03;;;1.48;;
40286;SDS011;25998;46.604;13.610;2023-08-07T13:53:12;2.30;;;1.42;;
40286;SDS011;25998;46.604;13.610;2023-08-07T13:56:23;3.00;;;1.42;;
40286;SDS011;25998;46.604;13.610;2023-08-07T13:59:35;3.65;;;1.30;;
40286;SDS011;25998;46.604;13.610;2023-08-07T14:02:45;2.30;;;1.42;;
40286;SDS011;25998;46.604;13.610;2023-08-07T14:05:56;2.53;;;1.40;;
40286;SDS011;25998;46.604;13.610;2023-08-07T14:09:07;3.33;;;1.70;;
40286;SDS011;25998;46.604;13.610;2023-08-07T14:12:19;2.90;;;1.30;;
40286;SDS011;25998;46.604;13.610;2023-08-07T14:15:30;3.22;;;1.60;;
40286;SDS011;25998;46.604;13.610;2023-08-07T14:18:41;2.47;;;1.30;;
40286;SDS011;25998;46.604;13.610;2023-08-07T14:21:52;2.22;;;1.50;;
40286;SDS011;25998;46.604;13.610;2023-08-07T14:25:02;2.88;;;1.38;;
40286;SDS011;25998;46.604;13.610;2023-08-07T14:28:15;1.88;;;1.30;;
40286;SDS011;25998;46.604;13.610;2023-08-07T14:31:25;3.42;;;1.52;;
40286;SDS011;25998;46.604;13.610;2023-08-07T14:34:36;2.83;;;1.48;;
40286;SDS011;25998;46.604;13.610;2023-08-07T14:37:47;2.17;;;1.50;;
40286;SDS011;25998;46.604;13.610;2023-08-07T14:40:58;3.28;;;1.33;;
40286;SDS011;25998;46.604;13.610;2023-08-07T14:44:09;2.63;;;1.40;;
40286;SDS011;25998;46.604;13.610;2023-08-07T14:47:20;2.97;;;1.42;;
40286;SDS011;25998;46.604;13.610;2023-08-07T14:50:31;2.58;;;1.20;;
40286;SDS011;25998;46.604;13.610;2023-08-07T14:53:42;2.17;;;1.30;;
40286;SDS011;25998;46.604;13.610;2023-08-07T14:56:53;2.70;;;1.50;;
40286;SDS011;25998;46.604;13.610;2023-08-07T15:00:04;2.40;;;1.15;;
40286;SDS011;25998;46.604;13.610;2023-08-07T15:03:16;12.07;;;2.58;;
40286;SDS011;25998;46.604;13.610;2023-08-07T15:06:26;5.88;;;1.77;;
40286;SDS011;25998;46.604;13.610;2023-08-07T15:09:37;2.70;;;1.50;;
40286;SDS011;25998;46.604;13.610;2023-08-07T15:12:48;4.15;;;1.77;;
40286;SDS011;25998;46.604;13.610;2023-08-07T15:15:59;3.97;;;1.65;;
40286;SDS011;25998;46.604;13.610;2023-08-07T15:19:10;3.60;;;1.50;;
40286;SDS011;25998;46.604;13.610;2023-08-07T15:22:21;4.82;;;1.50;;
40286;SDS011;25998;46.604;13.610;2023-08-07T15:25:31;2.83;;;1.30;;
40286;SDS011;25998;46.604;13.610;2023-08-07T15:28:42;2.17;;;1.25;;
40286;SDS011;25998;46.604;13.610;2023-08-07T15:31:53;4.53;;;1.80;;
40286;SDS011;25998;46.604;13.610;2023-08-07T15:35:04;2.45;;;1.65;;
40286;SDS011;25998;46.604;13.610;2023-08-07T15:38:15;2.30;;;1.30;;
40286;SDS011;25998;46.604;13.610;2023-08-07T15:41:26;3.85;;;1.70;;
40286;SDS011;25998;46.604;13.610;2023-08-07T15:44:37;2.28;;;1.20;;
40286;SDS011;25998;46.604;13.610;2023-08-07T15:47:48;2.53;;;1.65;;
40286;SDS011;25998;46.604;13.610;2023-08-07T15:50:59;2.13;;;1.40;;
40286;SDS011;25998;46.604;13.610;2023-08-07T15:54:10;1.80;;;1.33;;
40286;SDS011;25998;46.604;13.610;2023-08-07T15:57:21;2.13;;;1.35;;
40286;SDS011;25998;46.604;13.610;2023-08-07T16:00:32;2.45;;;1.40;;
40286;SDS011;25998;46.604;13.610;2023-08-07T16:03:44;3.05;;;1.60;;
40286;SDS011;25998;46.604;13.610;2023-08-07T16:06:55;2.20;;;1.52;;
40286;SDS011;25998;46.604;13.610;2023-08-07T16:10:06;1.75;;;1.10;;
40286;SDS011;25998;46.604;13.610;2023-08-07T16:13:17;2.20;;;1.30;;
40286;SDS011;25998;46.604;13.610;2023-08-07T16:16:29;2.03;;;1.15;;
40286;SDS011;25998;46.604;13.610;2023-08-07T16:19:40;1.73;;;1.08;;
40286;SDS011;25998;46.604;13.610;2023-08-07T16:22:51;2.03;;;1.17;;
40286;SDS011;25998;46.604;13.610;2023-08-07T16:26:02;2.50;;;1.33;;
40286;SDS011;25998;46.604;13.610;2023-08-07T16:29:13;2.42;;;1.17;;
40286;SDS011;25998;46.604;13.610;2023-08-07T16:32:23;2.00;;;0.98;;
40286;SDS011;25998;46.604;13.610;2023-08-07T16:35:34;3.65;;;1.10;;
40286;SDS011;25998;46.604;13.610;2023-08-07T16:38:45;2.35;;;1.40;;
40286;SDS011;25998;46.604;13.610;2023-08-07T16:41:59;2.63;;;1.23;;
40286;SDS011;25998;46.604;13.610;2023-08-07T16:45:10;1.70;;;1.10;;
40286;SDS011;25998;46.604;13.610;2023-08-07T16:48:20;2.38;;;1.30;;
40286;SDS011;25998;46.604;13.610;2023-08-07T16:51:31;3.92;;;1.35;;
40286;SDS011;25998;46.604;13.610;2023-08-07T16:54:42;2.22;;;1.27;;
40286;SDS011;25998;46.604;13.610;2023-08-07T16:57:54;2.33;;;1.10;;
40286;SDS011;25998;46.604;13.610;2023-08-07T17:01:05;3.08;;;1.75;;
40286;SDS011;25998;46.604;13.610;2023-08-07T17:04:16;2.90;;;1.38;;
40286;SDS011;25998;46.604;13.610;2023-08-07T17:07:27;2.95;;;1.50;;
40286;SDS011;25998;46.604;13.610;2023-08-07T17:10:38;2.05;;;1.20;;
40286;SDS011;25998;46.604;13.610;2023-08-07T17:13:49;2.17;;;1.20;;
40286;SDS011;25998;46.604;13.610;2023-08-07T17:16:59;1.70;;;1.20;;
40286;SDS011;25998;46.604;13.610;2023-08-07T17:20:10;1.77;;;1.15;;
40286;SDS011;25998;46.604;13.610;2023-08-07T17:23:21;2.17;;;1.13;;
40286;SDS011;25998;46.604;13.610;2023-08-07T17:26:32;4.85;;;1.23;;
40286;SDS011;25998;46.604;13.610;2023-08-07T17:29:44;12.13;;;2.55;;
40286;SDS011;25998;46.604;13.610;2023-08-07T17:32:54;5.10;;;1.80;;
40286;SDS011;25998;46.604;13.610;2023-08-07T17:36:07;3.05;;;1.00;;
40286;SDS011;25998;46.604;13.610;2023-08-07T17:39:17;3.22;;;1.10;;
40286;SDS011;25998;46.604;13.610;2023-08-07T17:42:28;2.78;;;1.00;;
40286;SDS011;25998;46.604;13.610;2023-08-07T17:45:39;3.83;;;1.25;;
40286;SDS011;25998;46.604;13.610;2023-08-07T17:48:50;3.78;;;1.25;;
40286;SDS011;25998;46.604;13.610;2023-08-07T17:52:01;2.75;;;1.10;;
40286;SDS011;25998;46.604;13.610;2023-08-07T17:55:13;2.53;;;1.20;;
40286;SDS011;25998;46.604;13.610;2023-08-07T17:58:26;2.47;;;1.38;;
40286;SDS011;25998;46.604;13.610;2023-08-07T18:01:37;1.75;;;1.05;;
40286;SDS011;25998;46.604;13.610;2023-08-07T18:04:48;1.98;;;1.05;;
40286;SDS011;25998;46.604;13.610;2023-08-07T18:07:59;3.75;;;1.25;;
40286;SDS011;25998;46.604;13.610;2023-08-07T18:11:10;2.25;;;1.20;;
40286;SDS011;25998;46.604;13.610;2023-08-07T18:14:20;4.53;;;1.13;;
40286;SDS011;25998;46.604;13.610;2023-08-07T18:17:31;1.80;;;0.95;;
40286;SDS011;25998;46.604;13.610;2023-08-07T18:20:42;1.95;;;1.00;;
40286;SDS011;25998;46.604;13.610;2023-08-07T18:23:53;1.92;;;1.30;;
40286;SDS011;25998;46.604;13.610;2023-08-07T18:27:04;5.57;;;1.30;;
40286;SDS011;25998;46.604;13.610;2023-08-07T18:30:15;3.75;;;1.40;;
40286;SDS011;25998;46.604;13.610;2023-08-07T18:33:26;2.80;;;1.20;;
40286;SDS011;25998;46.604;13.610;2023-08-07T18:36:37;2.20;;;1.00;;
40286;SDS011;25998;46.604;13.610;2023-08-07T18:39:49;2.45;;;1.00;;
40286;SDS011;25998;46.604;13.610;2023-08-07T18:43:00;3.28;;;1.33;;
40286;SDS011;25998;46.604;13.610;2023-08-07T18:46:11;2.80;;;1.10;;
40286;SDS011;25998;46.604;13.610;2023-08-07T18:49:23;3.40;;;1.00;;
40286;SDS011;25998;46.604;13.610;2023-08-07T18:52:34;4.75;;;1.55;;
40286;SDS011;25998;46.604;13.610;2023-08-07T18:55:45;1.73;;;1.05;;
40286;SDS011;25998;46.604;13.610;2023-08-07T18:58:56;2.92;;;1.10;;
40286;SDS011;25998;46.604;13.610;2023-08-07T19:02:07;3.97;;;1.40;;
40286;SDS011;25998;46.604;13.610;2023-08-07T19:05:18;3.60;;;1.10;;
40286;SDS011;25998;46.604;13.610;2023-08-07T19:08:29;2.88;;;1.27;;
40286;SDS011;25998;46.604;13.610;2023-08-07T19:11:40;1.42;;;0.80;;
40286;SDS011;25998;46.604;13.610;2023-08-07T19:14:51;3.72;;;1.23;;
40286;SDS011;25998;46.604;13.610;2023-08-07T19:18:02;2.15;;;0.80;;
40286;SDS011;25998;46.604;13.610;2023-08-07T19:21:14;2.30;;;1.10;;
40286;SDS011;25998;46.604;13.610;2023-08-07T19:24:25;5.40;;;1.17;;
40286;SDS011;25998;46.604;13.610;2023-08-07T19:27:36;4.13;;;1.20;;
40286;SDS011;25998;46.604;13.610;2023-08-07T19:30:47;8.38;;;1.60;;
40286;SDS011;25998;46.604;13.610;2023-08-07T19:33:57;6.25;;;1.30;;
40286;SDS011;25998;46.604;13.610;2023-08-07T19:37:08;5.78;;;1.40;;
40286;SDS011;25998;46.604;13.610;2023-08-07T19:40:19;7.57;;;1.30;;
40286;SDS011;25998;46.604;13.610;2023-08-07T19:43:34;5.32;;;1.27;;
40286;SDS011;25998;46.604;13.610;2023-08-07T19:46:45;7.45;;;1.48;;
40286;SDS011;25998;46.604;13.610;2023-08-07T19:49:56;5.45;;;1.30;;
40286;SDS011;25998;46.604;13.610;2023-08-07T19:53:07;4.45;;;1.35;;
40286;SDS011;25998;46.604;13.610;2023-08-07T19:56:18;2.72;;;1.08;;
40286;SDS011;25998;46.604;13.610;2023-08-07T19:59:29;1.95;;;1.02;;
40286;SDS011;25998;46.604;13.610;2023-08-07T20:02:40;3.63;;;0.95;;
40286;SDS011;25998;46.604;13.610;2023-08-07T20:05:51;1.77;;;1.02;;
40286;SDS011;25998;46.604;13.610;2023-08-07T20:09:02;1.92;;;1.00;;
40286;SDS011;25998;46.604;13.610;2023-08-07T20:12:13;2.65;;;0.90;;
40286;SDS011;25998;46.604;13.610;2023-08-07T20:15:25;2.55;;;1.00;;
40286;SDS011;25998;46.604;13.610;2023-08-07T20:18:36;3.10;;;1.25;;
40286;SDS011;25998;46.604;13.610;2023-08-07T20:21:47;3.13;;;1.30;;
40286;SDS011;25998;46.604;13.610;2023-08-07T20:25:00;2.28;;;1.20;;
40286;SDS011;25998;46.604;13.610;2023-08-07T20:28:11;4.57;;;1.20;;
40286;SDS011;25998;46.604;13.610;2023-08-07T20:31:21;9.70;;;1.85;;
40286;SDS011;25998;46.604;13.610;2023-08-07T20:34:32;6.65;;;1.85;;
40286;SDS011;25998;46.604;13.610;2023-08-07T20:37:43;5.43;;;1.88;;
40286;SDS011;25998;46.604;13.610;2023-08-07T20:40:54;6.35;;;1.80;;
40286;SDS011;25998;46.604;13.610;2023-08-07T20:44:05;5.28;;;1.80;;
40286;SDS011;25998;46.604;13.610;2023-08-07T20:47:15;6.18;;;1.83;;
40286;SDS011;25998;46.604;13.610;2023-08-07T20:50:26;8.65;;;1.77;;
40286;SDS011;25998;46.604;13.610;2023-08-07T20:53:37;7.50;;;1.83;;
40286;SDS011;25998;46.604;13.610;2023-08-07T20:56:48;5.80;;;1.63;;
40286;SDS011;25998;46.604;13.610;2023-08-07T20:59:59;8.45;;;1.67;;
40286;SDS011;25998;46.604;13.610;2023-08-07T21:03:10;10.20;;;2.28;;
40286;SDS011;25998;46.604;13.610;2023-08-07T21:06:21;9.18;;;2.25;;